Time;durP1;ratioP1;P1;durP2;ratioP2;P2;SDS_P1;SDS_P2;PMS_P1;PMS_P2;Temp;Humidity;BMP_temperature;BMP_pressure;BME280_temperature;BME280_humidity;BME280_pressure;Samples;Min_cycle;Max_cycle;Signal;HPM_P1;HPM_P2
2021/05/15 00:00:32;;;;;;;5.50;4.72;;;15.00;99.90;;;;;;4938286;29;20075;-79
2021/05/15 00:02:59;;;;;;;7.45;5.43;;;14.90;99.90;;;;;;4938303;29;20105;-83
2021/05/15 00:05:25;;;;;;;8.75;5.35;;;14.70;99.90;;;;;;4938387;29;20540;-82
2021/05/15 00:07:52;;;;;;;8.80;5.50;;;14.80;99.90;;;;;;4921239;29;20031;-81
2021/05/15 00:10:18;;;;;;;6.78;5.20;;;14.70;99.90;;;;;;4938125;29;20083;-78
2021/05/15 00:12:44;;;;;;;8.15;5.28;;;14.70;99.90;;;;;;4938085;29;20023;-81
2021/05/15 00:15:11;;;;;;;8.60;5.78;;;14.60;99.90;;;;;;4938430;29;20030;-80
2021/05/15 00:17:41;;;;;;;10.07;6.20;;;14.50;99.90;;;;;;4938010;29;20059;-81
2021/05/15 00:20:13;;;;;;;8.15;6.03;;;14.50;99.90;;;;;;4936636;29;20028;-81
2021/05/15 00:22:39;;;;;;;8.80;6.07;;;14.30;99.90;;;;;;4937974;29;20090;-78
2021/05/15 00:25:07;;;;;;;8.13;5.70;;;14.20;99.90;;;;;;4920754;29;20070;-81
2021/05/15 00:27:33;;;;;;;6.28;5.25;;;14.40;99.90;;;;;;4937622;29;20506;-78
2021/05/15 00:29:59;;;;;;;7.20;5.30;;;14.40;99.90;;;;;;4920417;29;20506;-83
2021/05/15 00:32:25;;;;;;;9.63;5.72;;;14.20;99.90;;;;;;4937757;29;20031;-83
2021/05/15 00:34:51;;;;;;;9.45;5.20;;;14.10;99.90;;;;;;4937747;29;20027;-81
2021/05/15 00:37:18;;;;;;;11.85;5.47;;;14.00;99.90;;;;;;4937937;29;20419;-83
2021/05/15 00:39:44;;;;;;;8.93;5.13;;;14.00;99.90;;;;;;4937690;29;20031;-81
2021/05/15 00:42:10;;;;;;;10.25;5.57;;;13.90;99.90;;;;;;4937394;29;20074;-81
2021/05/15 00:44:45;;;;;;;9.25;6.32;;;13.80;99.90;;;;;;4936765;29;20067;-81
2021/05/15 00:47:29;;;;;;;9.23;5.90;;;13.70;99.90;;;;;;4937667;29;20470;-82
2021/05/15 00:49:55;;;;;;;10.05;6.70;;;13.80;99.90;;;;;;4938044;29;20028;-84
2021/05/15 00:52:22;;;;;;;10.57;7.20;;;13.70;99.90;;;;;;4936221;29;20035;-84
2021/05/15 00:54:51;;;;;;;9.52;7.18;;;13.70;99.90;;;;;;4937580;29;20024;-81
2021/05/15 00:57:17;;;;;;;9.63;6.70;;;13.70;99.90;;;;;;4920127;29;20024;-84
2021/05/15 00:59:42;;;;;;;12.88;7.50;;;13.70;99.90;;;;;;4937248;29;20016;-80
2021/05/15 01:02:10;;;;;;;10.07;7.18;;;13.60;99.90;;;;;;4936146;29;20462;-83
2021/05/15 01:04:38;;;;;;;10.98;6.97;;;13.50;99.90;;;;;;4937067;29;20024;-83
2021/05/15 01:07:07;;;;;;;11.48;7.50;;;13.60;99.90;;;;;;4937116;29;20027;-78
2021/05/15 01:09:33;;;;;;;10.00;7.35;;;13.50;99.90;;;;;;4936987;29;20028;-82
2021/05/15 01:12:03;;;;;;;13.25;8.70;;;13.50;99.90;;;;;;4935712;29;20028;-81
2021/05/15 01:14:29;;;;;;;12.52;9.27;;;13.50;99.90;;;;;;4936776;29;20035;-84
2021/05/15 01:16:55;;;;;;;11.82;9.60;;;13.60;99.90;;;;;;4919762;29;20421;-78
2021/05/15 01:19:20;;;;;;;15.05;9.70;;;13.60;99.90;;;;;;4936922;29;20020;-79
2021/05/15 01:21:46;;;;;;;11.85;8.82;;;13.60;99.90;;;;;;4919898;29;20117;-78
2021/05/15 01:24:12;;;;;;;11.20;8.43;;;13.50;99.90;;;;;;4935552;29;20028;-84
2021/05/15 01:26:38;;;;;;;11.00;9.30;;;13.30;99.90;;;;;;4935352;29;20020;-79
2021/05/15 01:29:06;;;;;;;12.60;9.10;;;13.30;99.90;;;;;;4936697;29;20035;-83
2021/05/15 01:31:35;;;;;;;12.65;9.73;;;13.30;99.90;;;;;;4919931;29;20030;-79
2021/05/15 01:34:02;;;;;;;13.68;9.88;;;13.30;99.90;;;;;;4936748;29;20549;-82
2021/05/15 01:36:32;;;;;;;13.35;8.90;;;13.20;99.90;;;;;;4936725;29;20020;-83
2021/05/15 01:38:58;;;;;;;10.25;9.15;;;13.20;99.90;;;;;;4919574;29;20478;-83
2021/05/15 01:41:24;;;;;;;11.57;9.18;;;13.10;99.90;;;;;;4936814;29;20035;-84
2021/05/15 01:43:50;;;;;;;11.82;9.50;;;13.00;99.90;;;;;;4919436;29;20031;-82
2021/05/15 01:46:16;;;;;;;13.05;9.77;;;13.00;99.90;;;;;;4919360;29;20027;-81
2021/05/15 01:48:42;;;;;;;12.35;10.00;;;13.00;99.90;;;;;;4936383;29;20027;-83
2021/05/15 01:51:11;;;;;;;14.40;9.77;;;13.10;99.90;;;;;;4919296;29;20123;-79
2021/05/15 01:53:54;;;;;;;12.95;10.40;;;13.20;99.90;;;;;;4936602;29;20031;-83
2021/05/15 01:56:29;;;;;;;14.45;10.60;;;13.00;99.90;;;;;;4919213;29;20497;-82
2021/05/15 01:58:56;;;;;;;12.15;10.20;;;13.00;99.90;;;;;;4936602;29;20383;-84
2021/05/15 02:01:24;;;;;;;12.75;10.60;;;13.00;99.90;;;;;;4936202;29;20099;-84
2021/05/15 02:03:50;;;;;;;13.32;9.70;;;12.90;99.90;;;;;;4919211;29;20111;-84
2021/05/15 02:06:17;;;;;;;11.82;10.05;;;13.00;99.90;;;;;;4919181;29;20027;-83
2021/05/15 02:08:45;;;;;;;12.80;9.60;;;13.10;99.90;;;;;;4919372;29;20027;-83
2021/05/15 02:11:13;;;;;;;11.60;9.25;;;13.10;99.90;;;;;;4936208;29;20032;-82
2021/05/15 02:13:38;;;;;;;11.85;9.43;;;13.10;99.90;;;;;;4936356;29;20032;-79
2021/05/15 02:16:05;;;;;;;12.05;9.75;;;13.00;99.90;;;;;;4936035;29;20094;-82
2021/05/15 02:18:32;;;;;;;11.27;9.05;;;13.00;99.90;;;;;;4936126;29;20478;-79
2021/05/15 02:20:58;;;;;;;11.23;8.88;;;12.90;99.90;;;;;;4936180;29;20032;-81
2021/05/15 02:23:25;;;;;;;9.65;7.95;;;13.00;99.90;;;;;;4936235;29;20062;-80
2021/05/15 02:25:53;;;;;;;8.68;7.50;;;13.10;99.90;;;;;;4936299;29;20467;-80
2021/05/15 02:28:20;;;;;;;10.55;8.32;;;13.10;99.90;;;;;;4918895;29;20471;-84
2021/05/15 02:30:46;;;;;;;11.68;7.95;;;13.20;99.90;;;;;;4936119;29;20094;-81
2021/05/15 02:33:12;;;;;;;12.68;9.02;;;13.20;99.90;;;;;;4935958;29;20378;-82
2021/05/15 02:35:39;;;;;;;13.68;8.27;;;13.10;99.90;;;;;;4936055;29;20108;-83
2021/05/15 02:38:07;;;;;;;12.43;9.15;;;13.00;99.90;;;;;;4935916;29;20035;-79
2021/05/15 02:40:33;;;;;;;9.10;8.05;;;13.00;99.90;;;;;;4936210;29;20047;-81
2021/05/15 02:42:59;;;;;;;11.68;7.82;;;13.00;99.90;;;;;;4936202;29;20032;-78
2021/05/15 02:45:25;;;;;;;9.68;8.18;;;13.10;99.90;;;;;;4936379;29;20487;-83
2021/05/15 02:47:55;;;;;;;11.68;7.07;;;13.20;99.90;;;;;;4935877;29;20023;-79
2021/05/15 02:50:23;;;;;;;11.98;7.47;;;13.30;99.90;;;;;;4935741;29;20032;-77
2021/05/15 02:52:50;;;;;;;9.93;6.85;;;13.30;99.90;;;;;;4936508;29;20530;-86
2021/05/15 02:55:19;;;;;;;8.95;6.80;;;13.40;99.90;;;;;;4919102;29;20027;-87
2021/05/15 02:57:46;;;;;;;8.73;6.88;;;13.40;99.90;;;;;;4936139;29;20056;-87
2021/05/15 03:00:16;;;;;;;9.80;6.78;;;13.40;99.90;;;;;;4935969;29;20028;-80
2021/05/15 03:02:42;;;;;;;10.32;6.40;;;13.40;99.90;;;;;;4936027;29;20016;-86
2021/05/15 03:05:11;;;;;;;9.75;6.43;;;13.50;99.90;;;;;;4936526;29;20027;-79
2021/05/15 03:07:37;;;;;;;9.32;6.82;;;13.40;99.90;;;;;;4937520;29;20030;-80
2021/05/15 03:10:05;;;;;;;9.40;7.05;;;13.30;99.90;;;;;;4939092;29;20032;-84
2021/05/15 03:12:31;;;;;;;9.82;7.68;;;13.30;99.90;;;;;;4939433;29;20523;-77
2021/05/15 03:14:57;;;;;;;9.95;7.10;;;13.30;99.90;;;;;;4939429;29;20023;-84
2021/05/15 03:17:23;;;;;;;10.68;6.80;;;13.20;99.90;;;;;;4939567;29;20023;-84
2021/05/15 03:19:52;;;;;;;10.80;6.63;;;13.20;99.90;;;;;;4939246;29;20024;-83
2021/05/15 03:22:20;;;;;;;10.45;6.95;;;13.10;99.90;;;;;;4939445;29;20028;-85
2021/05/15 03:24:45;;;;;;;10.73;7.18;;;13.10;99.90;;;;;;4939260;29;20032;-81
2021/05/15 03:27:11;;;;;;;8.35;6.82;;;13.10;99.90;;;;;;4938944;29;20051;-85
2021/05/15 03:29:37;;;;;;;11.50;6.97;;;13.10;99.90;;;;;;4939145;29;20024;-85
2021/05/15 03:32:04;;;;;;;11.32;7.40;;;13.10;99.90;;;;;;4939085;29;20059;-81
2021/05/15 03:34:30;;;;;;;10.05;7.22;;;13.10;99.90;;;;;;4938869;29;20045;-81
2021/05/15 03:36:56;;;;;;;11.30;7.47;;;13.20;99.90;;;;;;4939014;29;20101;-83
2021/05/15 03:39:22;;;;;;;10.45;7.82;;;13.10;99.90;;;;;;4938832;29;20478;-84
2021/05/15 03:41:48;;;;;;;13.55;7.43;;;13.10;99.90;;;;;;4938757;29;20035;-84
2021/05/15 03:44:15;;;;;;;10.40;8.02;;;13.20;99.90;;;;;;4939284;29;20501;-84
2021/05/15 03:46:41;;;;;;;12.25;7.80;;;13.20;99.90;;;;;;4938936;29;20023;-78
2021/05/15 03:49:08;;;;;;;9.30;7.10;;;13.20;99.90;;;;;;4921578;29;20035;-84
2021/05/15 03:51:35;;;;;;;8.35;7.30;;;13.30;99.90;;;;;;4938399;29;20167;-78
2021/05/15 03:54:02;;;;;;;12.05;8.38;;;13.30;99.90;;;;;;4938852;29;20027;-84
2021/05/15 03:56:28;;;;;;;12.05;8.02;;;13.20;99.90;;;;;;4939126;29;20366;-84
2021/05/15 03:58:55;;;;;;;12.18;9.18;;;13.10;99.90;;;;;;4938319;29;20032;-84
2021/05/15 04:01:22;;;;;;;12.82;8.57;;;13.20;99.90;;;;;;4921362;29;20482;-81
2021/05/15 04:03:48;;;;;;;12.35;8.27;;;13.10;99.90;;;;;;4938776;29;20027;-84
2021/05/15 04:06:15;;;;;;;10.95;8.25;;;13.30;99.90;;;;;;4937117;29;20122;-79
2021/05/15 04:08:41;;;;;;;11.98;8.10;;;13.30;99.90;;;;;;4921405;29;20028;-78
2021/05/15 04:11:07;;;;;;;9.70;7.55;;;13.40;99.90;;;;;;4921522;29;20038;-84
2021/05/15 04:13:53;;;;;;;12.10;8.50;;;13.40;99.90;;;;;;4921216;29;20034;-84
2021/05/15 04:16:26;;;;;;;10.40;8.05;;;13.40;99.90;;;;;;4938434;29;20027;-78
2021/05/15 04:18:52;;;;;;;8.90;7.28;;;13.50;99.90;;;;;;4937375;29;20071;-78
2021/05/15 04:21:19;;;;;;;11.88;7.47;;;13.70;99.90;;;;;;4938136;29;20027;-79
2021/05/15 04:23:45;;;;;;;9.48;7.38;;;13.70;99.90;;;;;;4937957;29;20026;-81
2021/05/15 04:26:11;;;;;;;9.13;7.22;;;13.90;99.90;;;;;;4938059;29;20110;-79
2021/05/15 04:28:38;;;;;;;11.05;8.00;;;14.00;99.90;;;;;;4937531;29;20143;-81
2021/05/15 04:31:04;;;;;;;9.75;8.00;;;14.10;99.90;;;;;;4937939;29;20110;-83
2021/05/15 04:33:31;;;;;;;10.27;6.85;;;14.30;99.90;;;;;;4920642;29;20019;-81
2021/05/15 04:35:57;;;;;;;8.85;6.53;;;14.40;99.90;;;;;;4920564;29;20062;-83
2021/05/15 04:38:23;;;;;;;9.80;6.82;;;14.50;99.90;;;;;;4938042;29;20144;-79
2021/05/15 04:40:51;;;;;;;9.52;7.40;;;14.50;99.90;;;;;;4938046;29;20050;-79
2021/05/15 04:43:18;;;;;;;9.98;8.00;;;14.50;99.90;;;;;;4937859;29;20043;-80
2021/05/15 04:45:45;;;;;;;11.80;8.63;;;14.30;99.90;;;;;;4937625;29;20541;-81
2021/05/15 04:48:12;;;;;;;12.73;8.00;;;14.30;99.90;;;;;;4937508;29;20155;-84
2021/05/15 04:50:38;;;;;;;10.98;7.47;;;14.30;99.90;;;;;;4937285;29;20078;-81
2021/05/15 04:53:05;;;;;;;11.27;8.48;;;14.40;99.90;;;;;;4937218;29;20035;-83
2021/05/15 04:55:31;;;;;;;13.18;8.50;;;14.40;99.90;;;;;;4937249;29;20408;-80
2021/05/15 04:57:59;;;;;;;10.13;8.30;;;14.40;99.90;;;;;;4937675;29;20103;-84
2021/05/15 05:00:27;;;;;;;11.57;7.35;;;14.40;99.90;;;;;;4937525;29;20020;-83
2021/05/15 05:02:53;;;;;;;11.40;7.15;;;14.60;99.90;;;;;;4937188;29;20450;-80
2021/05/15 05:05:19;;;;;;;8.50;7.32;;;14.70;99.90;;;;;;4937252;29;20026;-83
2021/05/15 05:07:45;;;;;;;8.90;6.25;;;14.80;99.90;;;;;;4937498;29;20020;-81
2021/05/15 05:10:12;;;;;;;11.02;6.93;;;14.80;99.90;;;;;;4937312;29;20110;-79
2021/05/15 05:12:38;;;;;;;9.82;6.07;;;14.90;99.90;;;;;;4937240;29;20479;-79
2021/05/15 05:15:05;;;;;;;10.88;7.00;;;15.20;99.90;;;;;;4936249;29;20024;-82
2021/05/15 05:17:31;;;;;;;9.68;6.53;;;15.20;99.90;;;;;;4936863;29;20027;-78
2021/05/15 05:19:57;;;;;;;8.65;7.10;;;15.30;99.90;;;;;;4937161;29;20509;-81
2021/05/15 05:22:23;;;;;;;9.93;7.90;;;15.30;99.90;;;;;;4936982;29;20020;-80
2021/05/15 05:24:49;;;;;;;10.18;8.00;;;15.40;99.90;;;;;;4936631;29;20060;-79
2021/05/15 05:27:19;;;;;;;10.48;7.85;;;15.50;99.90;;;;;;4936777;29;20048;-80
2021/05/15 05:29:48;;;;;;;10.40;7.03;;;15.50;99.90;;;;;;4935631;29;20179;-81
2021/05/15 05:32:14;;;;;;;13.50;8.20;;;15.10;99.90;;;;;;4937794;29;20027;-81
2021/05/15 05:34:41;;;;;;;10.48;7.18;;;15.30;99.90;;;;;;4937218;29;20478;-78
2021/05/15 05:37:07;;;;;;;10.00;7.00;;;15.30;99.90;;;;;;4936845;29;20020;-78
2021/05/15 05:39:34;;;;;;;9.73;6.40;;;15.20;99.90;;;;;;4936947;29;20047;-81
2021/05/15 05:42:00;;;;;;;11.00;6.65;;;15.50;99.90;;;;;;4936988;29;20024;-81
2021/05/15 05:44:26;;;;;;;7.00;5.32;;;15.70;99.90;;;;;;4937231;29;20106;-81
2021/05/15 05:46:52;;;;;;;7.15;6.13;;;15.90;99.90;;;;;;4937745;29;20028;-77
2021/05/15 05:49:18;;;;;;;6.93;5.40;;;16.00;99.90;;;;;;4937344;29;20479;-77
2021/05/15 05:51:44;;;;;;;7.82;5.38;;;15.90;99.90;;;;;;4937632;29;20485;-81
2021/05/15 05:54:10;;;;;;;6.80;4.75;;;16.10;99.90;;;;;;4937360;29;20479;-77
2021/05/15 05:56:36;;;;;;;6.75;4.88;;;16.20;99.90;;;;;;4937026;29;20441;-81
2021/05/15 05:59:03;;;;;;;6.55;5.10;;;16.30;99.90;;;;;;4936499;29;20055;-78
2021/05/15 06:01:29;;;;;;;6.70;5.15;;;16.50;99.90;;;;;;4936227;29;20032;-82
2021/05/15 06:03:55;;;;;;;8.20;4.43;;;16.30;99.90;;;;;;4936732;29;20455;-78
2021/05/15 06:06:21;;;;;;;5.30;4.40;;;16.40;99.90;;;;;;4935613;29;20074;-79
2021/05/15 06:08:47;;;;;;;5.97;4.40;;;16.50;99.90;;;;;;4935015;29;20032;-79
2021/05/15 06:11:13;;;;;;;6.55;3.70;;;16.50;99.90;;;;;;4919227;29;20035;-78
2021/05/15 06:13:39;;;;;;;5.43;4.00;;;16.70;99.90;;;;;;4936592;29;20024;-78
2021/05/15 06:16:06;;;;;;;6.20;3.90;;;16.90;99.90;;;;;;4935870;29;20506;-77
2021/05/15 06:18:32;;;;;;;5.35;3.40;;;17.10;99.90;;;;;;4935036;29;20483;-73
2021/05/15 06:20:58;;;;;;;7.40;4.00;;;17.10;99.90;;;;;;4935553;29;20020;-72
2021/05/15 06:23:25;;;;;;;8.40;4.35;;;17.30;99.90;;;;;;4918985;29;20035;-72
2021/05/15 06:25:52;;;;;;;6.03;5.00;;;17.60;99.90;;;;;;4919528;29;20032;-72
2021/05/15 06:28:19;;;;;;;4.50;3.85;;;17.70;99.90;;;;;;4935710;29;20123;-73
2021/05/15 06:30:45;;;;;;;8.35;4.40;;;17.90;99.90;;;;;;4935813;29;20032;-72
2021/05/15 06:33:11;;;;;;;5.78;3.92;;;18.10;99.90;;;;;;4936467;29;20036;-72
2021/05/15 06:35:37;;;;;;;5.88;3.80;;;18.10;99.90;;;;;;4936045;29;20404;-72
2021/05/15 06:38:05;;;;;;;6.75;4.32;;;18.30;99.90;;;;;;4936043;29;20458;-72
2021/05/15 06:40:32;;;;;;;7.78;5.40;;;18.30;99.90;;;;;;4935680;29;20389;-72
2021/05/15 06:42:58;;;;;;;11.27;6.22;;;18.20;99.90;;;;;;4937984;29;20058;-73
2021/05/15 06:45:24;;;;;;;12.07;6.00;;;18.50;99.90;;;;;;4939617;29;20055;-72
2021/05/15 06:47:51;;;;;;;6.75;4.40;;;18.80;99.90;;;;;;4939494;29;20027;-72
2021/05/15 06:50:18;;;;;;;7.50;4.13;;;19.00;99.90;;;;;;4939603;29;20034;-72
2021/05/15 06:52:44;;;;;;;7.20;4.38;;;19.20;99.80;;;;;;4939615;29;20031;-72
2021/05/15 06:55:11;;;;;;;10.38;3.80;;;19.20;99.30;;;;;;4939595;29;20023;-72
2021/05/15 06:57:37;;;;;;;5.90;4.15;;;19.20;99.90;;;;;;4939563;29;20075;-72
2021/05/15 07:00:05;;;;;;;5.38;4.00;;;19.40;99.90;;;;;;4939754;29;20023;-72
2021/05/15 07:02:31;;;;;;;5.85;4.10;;;19.50;99.90;;;;;;4939422;29;20031;-72
2021/05/15 07:04:57;;;;;;;6.80;3.85;;;19.60;99.90;;;;;;4938783;29;20028;-71
2021/05/15 07:07:23;;;;;;;6.18;4.40;;;19.50;98.80;;;;;;4939157;29;20027;-72
2021/05/15 07:09:51;;;;;;;6.32;4.20;;;19.50;99.00;;;;;;4939228;29;20382;-72
2021/05/15 07:12:18;;;;;;;7.95;4.60;;;19.40;99.90;;;;;;4939675;29;20024;-72
2021/05/15 07:14:45;;;;;;;6.35;4.28;;;19.20;99.70;;;;;;4939328;29;20039;-72
2021/05/15 07:17:12;;;;;;;7.65;4.72;;;19.20;99.90;;;;;;4939482;29;20023;-72
2021/05/15 07:19:38;;;;;;;6.13;4.30;;;19.30;99.90;;;;;;4939219;29;20343;-72
2021/05/15 07:22:04;;;;;;;6.00;4.28;;;19.20;99.20;;;;;;4939176;29;20030;-71
2021/05/15 07:24:30;;;;;;;6.22;4.50;;;19.00;99.10;;;;;;4921870;29;20474;-71
2021/05/15 07:26:56;;;;;;;7.45;4.43;;;18.90;99.50;;;;;;4938881;29;20071;-71
2021/05/15 07:29:22;;;;;;;6.47;4.15;;;18.80;99.90;;;;;;4938862;29;20118;-71
2021/05/15 07:31:48;;;;;;;7.35;4.97;;;19.20;99.90;;;;;;4939005;29;20489;-71
2021/05/15 07:34:14;;;;;;;6.32;4.93;;;19.20;99.30;;;;;;4938697;29;20045;-71
2021/05/15 07:36:40;;;;;;;7.03;4.53;;;19.10;99.90;;;;;;4938710;29;20107;-71
2021/05/15 07:39:06;;;;;;;8.02;4.60;;;19.30;99.90;;;;;;4938515;29;20023;-71
2021/05/15 07:41:33;;;;;;;7.97;4.93;;;19.30;99.90;;;;;;4938639;29;20059;-71
2021/05/15 07:43:58;;;;;;;7.07;4.35;;;19.30;99.90;;;;;;4938495;29;20027;-71
2021/05/15 07:46:24;;;;;;;7.00;4.78;;;19.50;99.90;;;;;;4938485;29;20078;-70
2021/05/15 07:48:50;;;;;;;8.55;4.80;;;19.30;99.00;;;;;;4938672;29;20070;-70
2021/05/15 07:51:21;;;;;;;9.07;5.15;;;19.30;99.00;;;;;;4938524;29;20111;-70
2021/05/15 07:53:50;;;;;;;7.50;5.22;;;19.30;99.20;;;;;;4938362;29;20031;-70
2021/05/15 07:56:16;;;;;;;9.02;4.90;;;19.40;98.70;;;;;;4938435;29;20019;-71
2021/05/15 07:58:43;;;;;;;8.88;5.45;;;19.50;98.10;;;;;;4938720;29;20024;-72
2021/05/15 08:01:09;;;;;;;7.68;5.85;;;19.80;98.60;;;;;;4938187;29;20016;-72
2021/05/15 08:03:35;;;;;;;6.90;5.85;;;20.00;98.20;;;;;;4938254;29;20035;-72
2021/05/15 08:06:02;;;;;;;8.63;5.30;;;20.10;98.70;;;;;;4921101;29;20032;-71
2021/05/15 08:08:28;;;;;;;7.75;5.30;;;20.00;97.00;;;;;;4938148;29;20020;-72
2021/05/15 08:10:54;;;;;;;7.13;4.80;;;19.90;98.20;;;;;;4937870;29;20034;-72
2021/05/15 08:13:20;;;;;;;5.88;4.72;;;20.10;98.70;;;;;;4938040;29;20028;-72
2021/05/15 08:15:46;;;;;;;6.80;4.65;;;20.50;96.70;;;;;;4938428;29;20394;-73
2021/05/15 08:18:12;;;;;;;6.20;5.20;;;20.40;96.40;;;;;;4938170;29;20030;-72
2021/05/15 08:20:38;;;;;;;10.52;5.30;;;20.10;95.80;;;;;;4937827;29;20475;-73
2021/05/15 08:23:04;;;;;;;6.28;4.65;;;20.10;96.10;;;;;;4937820;29;20044;-72
2021/05/15 08:25:31;;;;;;;7.45;4.88;;;20.00;98.30;;;;;;4937629;29;20111;-72
2021/05/15 08:27:59;;;;;;;8.93;4.75;;;20.10;97.50;;;;;;4939578;29;20051;-73
2021/05/15 08:30:31;;;;;;;7.20;4.68;;;20.10;97.20;;;;;;4947333;29;20027;-72
2021/05/15 08:32:58;;;;;;;7.63;4.72;;;20.20;96.30;;;;;;4956741;29;20463;-72
2021/05/15 08:35:25;;;;;;;6.65;4.97;;;20.10;97.10;;;;;;4956675;29;20106;-72
2021/05/15 08:37:52;;;;;;;6.90;5.32;;;20.20;96.60;;;;;;4956615;29;20054;-77
2021/05/15 08:40:19;;;;;;;8.55;4.95;;;20.60;95.30;;;;;;4956197;29;20150;-75
2021/05/15 08:42:47;;;;;;;7.28;4.80;;;21.10;95.20;;;;;;4955666;29;20026;-76
2021/05/15 08:45:15;;;;;;;7.43;4.80;;;21.50;95.10;;;;;;4955551;29;20115;-75
2021/05/15 08:47:42;;;;;;;10.02;4.63;;;22.20;95.20;;;;;;4955732;29;20106;-75
2021/05/15 08:50:14;;;;;;;9.68;4.40;;;22.60;94.20;;;;;;4955665;29;20378;-75
2021/05/15 08:52:46;;;;;;;6.80;4.00;;;23.10;93.90;;;;;;4938398;29;20027;-76
2021/05/15 08:55:20;;;;;;;11.63;3.97;;;23.40;92.20;;;;;;4938201;29;20386;-74
2021/05/15 08:57:47;;;;;;;6.30;3.58;;;23.80;92.20;;;;;;4956207;29;20030;-77
2021/05/15 09:00:21;;;;;;;6.45;4.07;;;23.40;90.10;;;;;;4957046;29;20462;-77
2021/05/15 09:02:48;;;;;;;;;;;23.10;91.00;;;;;;4956928;29;20031;-76
2021/05/15 09:05:17;;;;;;;5.68;3.67;;;22.70;90.50;;;;;;4938521;29;19906;-76
2021/05/15 09:07:51;;;;;;;10.23;4.10;;;22.80;90.60;;;;;;4955766;29;20019;-73
2021/05/15 09:10:17;;;;;;;;;;;22.60;92.60;;;;;;4956265;29;20453;-74
2021/05/15 09:12:43;;;;;;;5.85;3.70;;;22.70;91.40;;;;;;4955786;29;19914;-75
2021/05/15 09:15:11;;;;;;;7.97;3.75;;;22.60;90.70;;;;;;4956571;29;20482;-77
2021/05/15 09:17:48;;;;;;;9.00;4.38;;;22.30;91.00;;;;;;4956035;29;20035;-74
2021/05/15 09:20:22;;;;;;;6.50;4.05;;;22.00;91.20;;;;;;4955784;29;20466;-74
2021/05/15 09:22:48;;;;;;;6.57;3.92;;;21.90;91.10;;;;;;4956303;29;20028;-75
2021/05/15 09:25:14;;;;;;;6.68;3.45;;;22.10;91.10;;;;;;4955732;29;20045;-75
2021/05/15 09:27:40;;;;;;;4.68;3.55;;;22.20;91.50;;;;;;4955555;29;20485;-74
2021/05/15 09:30:07;;;;;;;6.05;3.30;;;21.80;89.70;;;;;;4955890;29;20031;-74
2021/05/15 09:32:34;;;;;;;5.47;3.53;;;22.10;91.00;;;;;;4955752;29;20520;-72
2021/05/15 09:35:02;;;;;;;7.22;3.50;;;22.20;91.40;;;;;;4955792;29;20437;-76
2021/05/15 09:37:28;;;;;;;6.97;3.20;;;22.40;90.50;;;;;;4955546;29;20110;-75
2021/05/15 09:39:54;;;;;;;5.75;2.40;;;22.40;91.90;;;;;;4955702;29;20366;-73
2021/05/15 09:42:20;;;;;;;4.20;2.47;;;22.70;90.80;;;;;;4955677;29;20027;-74
2021/05/15 09:44:46;;;;;;;4.72;2.50;;;22.80;91.30;;;;;;4955743;29;20034;-76
2021/05/15 09:47:17;;;;;;;4.18;2.40;;;22.60;88.90;;;;;;4955641;29;20114;-75
2021/05/15 09:49:43;;;;;;;4.22;2.10;;;22.80;91.40;;;;;;4955186;29;20070;-75
2021/05/15 09:52:09;;;;;;;4.43;2.00;;;22.80;90.60;;;;;;4955056;29;20058;-76
2021/05/15 09:54:43;;;;;;;4.47;2.40;;;22.90;90.20;;;;;;4938331;29;20078;-74
2021/05/15 09:57:13;;;;;;;7.30;3.35;;;23.00;90.30;;;;;;4955566;29;20497;-74
2021/05/15 09:59:42;;;;;;;4.07;1.90;;;22.80;85.90;;;;;;4955211;29;20062;-74
2021/05/15 10:02:16;;;;;;;5.20;2.47;;;22.90;87.80;;;;;;4955558;29;20023;-74
2021/05/15 10:04:47;;;;;;;4.78;2.08;;;23.30;87.90;;;;;;4955408;29;20023;-75
2021/05/15 10:07:32;;;;;;;4.45;1.95;;;23.70;88.10;;;;;;4955527;29;20393;-75
2021/05/15 10:10:04;;;;;;;3.92;2.20;;;23.80;86.80;;;;;;4955469;29;20086;-74
2021/05/15 10:12:30;;;;;;;2.50;1.90;;;23.70;86.50;;;;;;4955624;29;20031;-73
2021/05/15 10:14:56;;;;;;;6.53;1.98;;;23.70;83.00;;;;;;4955234;29;20131;-74
2021/05/15 10:17:22;;;;;;;4.30;2.03;;;23.90;83.90;;;;;;4955209;28;20031;-74
2021/05/15 10:19:48;;;;;;;6.38;2.10;;;24.20;83.50;;;;;;4959307;29;20026;-75
2021/05/15 10:22:14;;;;;;;6.57;2.10;;;;;;;;;;4958901;29;20043;-75
2021/05/15 10:24:46;;;;;;;3.95;1.95;;;24.40;83.30;;;;;;4941596;29;20061;-74
2021/05/15 10:27:15;;;;;;;3.90;2.15;;;24.40;83.30;;;;;;4958591;29;20074;-75
2021/05/15 10:29:50;;;;;;;5.07;2.33;;;24.50;82.30;;;;;;4958834;29;20078;-74
2021/05/15 10:32:20;;;;;;;7.40;2.42;;;24.20;83.30;;;;;;4959531;29;20030;-74
2021/05/15 10:34:48;;;;;;;7.88;2.53;;;24.10;79.20;;;;;;4959136;29;20030;-75
2021/05/15 10:37:19;;;;;;;7.70;2.63;;;24.00;84.50;;;;;;4959540;29;20016;-75
2021/05/15 10:39:46;;;;;;;7.65;2.80;;;24.00;86.20;;;;;;4958652;29;20016;-75
2021/05/15 10:42:12;;;;;;;6.15;2.47;;;24.10;86.40;;;;;;4958306;29;20023;-76
2021/05/15 10:44:43;;;;;;;4.38;2.00;;;24.50;81.50;;;;;;4958495;29;20059;-76
2021/05/15 10:47:09;;;;;;;3.08;2.20;;;24.60;82.10;;;;;;4958893;29;20035;-76
2021/05/15 10:49:36;;;;;;;4.25;1.90;;;24.20;80.10;;;;;;4958643;29;20047;-75
2021/05/15 10:52:13;;;;;;;3.05;2.00;;;24.60;81.90;;;;;;4958792;29;20027;-75
2021/05/15 10:54:48;;;;;;;5.20;2.05;;;25.20;80.90;;;;;;4958881;29;20080;-75
2021/05/15 10:57:29;;;;;;;4.10;2.00;;;25.10;75.60;;;;;;4958728;29;20031;-75
2021/05/15 11:00:00;;;;;;;3.08;1.95;;;24.10;74.20;;;;;;4958464;29;20027;-74
2021/05/15 11:02:33;;;;;;;5.63;2.30;;;23.90;77.50;;;;;;4958338;29;20020;-74
2021/05/15 11:05:03;;;;;;;2.72;1.90;;;23.20;77.60;;;;;;4958434;29;20020;-74
2021/05/15 11:07:35;;;;;;;5.57;2.10;;;24.30;78.00;;;;;;4958642;29;20028;-75
2021/05/15 11:10:04;;;;;;;3.25;1.83;;;24.60;77.80;;;;;;4958454;29;20031;-74
2021/05/15 11:12:37;;;;;;;4.22;1.60;;;25.50;81.80;;;;;;4958439;29;20024;-75
2021/05/15 11:15:06;;;;;;;2.97;1.90;;;25.40;71.90;;;;;;4941054;29;20031;-75
2021/05/15 11:17:32;;;;;;;6.97;1.90;;;24.70;74.20;;;;;;4958085;29;20062;-75
2021/05/15 11:20:02;;;;;;;5.40;1.80;;;24.80;77.70;;;;;;4958441;29;20024;-75
2021/05/15 11:22:52;;;;;;;3.08;1.80;;;24.60;76.00;;;;;;4958142;29;20026;-75
2021/05/15 11:25:18;;;;;;;4.10;1.90;;;24.40;78.90;;;;;;4958273;29;20485;-75
2021/05/15 11:27:48;;;;;;;2.97;2.00;;;24.30;76.10;;;;;;4957142;28;20047;-75
2021/05/15 11:30:23;;;;;;;3.92;1.70;;;23.90;74.30;;;;;;4957737;29;20031;-75
2021/05/15 11:32:55;;;;;;;;;;;23.90;75.60;;;;;;4958263;29;20027;-76
2021/05/15 11:35:21;;;;;;;4.47;1.70;;;24.80;77.80;;;;;;4958269;29;20384;-76
2021/05/15 11:37:47;;;;;;;4.07;1.80;;;25.30;76.50;;;;;;4957787;29;20102;-76
2021/05/15 11:40:14;;;;;;;3.78;2.13;;;25.90;72.50;;;;;;4958004;29;20046;-75
2021/05/15 11:42:40;;;;;;;4.10;1.77;;;26.60;71.20;;;;;;4957699;29;20031;-76
2021/05/15 11:45:06;;;;;;;4.18;1.80;;;26.70;71.70;;;;;;4957813;29;20027;-76
2021/05/15 11:47:32;;;;;;;2.45;1.48;;;27.00;69.10;;;;;;4957457;29;20090;-76
2021/05/15 11:50:01;;;;;;;3.08;1.80;;;27.60;71.20;;;;;;4940285;29;20039;-76
2021/05/15 11:52:35;;;;;;;4.43;1.80;;;26.60;67.10;;;;;;4957484;29;20020;-77
2021/05/15 11:55:02;;;;;;;2.88;1.60;;;25.70;66.60;;;;;;4940114;29;20439;-75
2021/05/15 11:57:30;;;;;;;3.53;1.70;;;25.60;72.30;;;;;;4957359;29;20027;-76
2021/05/15 12:00:10;;;;;;;3.00;1.85;;;25.50;72.70;;;;;;4957507;29;20422;-76
2021/05/15 12:02:44;;;;;;;6.05;2.17;;;25.40;75.90;;;;;;4957467;29;20020;-75
2021/05/15 12:05:17;;;;;;;10.25;2.65;;;25.40;75.00;;;;;;4957542;29;20059;-76
2021/05/15 12:07:51;;;;;;;6.28;1.67;;;25.80;75.80;;;;;;4957308;29;20023;-76
2021/05/15 12:10:19;;;;;;;;;;;26.50;73.40;;;;;;4957899;29;20054;-76
2021/05/15 12:12:59;;;;;;;3.38;1.83;;;27.00;71.70;;;;;;4957382;29;19918;-77
2021/05/15 12:15:27;;;;;;;6.18;1.90;;;27.20;66.60;;;;;;4957135;29;20016;-76
2021/05/15 12:17:53;;;;;;;3.50;2.20;;;27.60;68.60;;;;;;4939747;29;20019;-74
2021/05/15 12:20:41;;;;;;;4.05;1.90;;;28.00;67.90;;;;;;4939803;29;20505;-75
2021/05/15 12:23:17;;;;;;;23.73;5.13;;;28.00;67.10;;;;;;4957087;29;20078;-75
2021/05/15 12:26:08;;;;;;;3.60;1.58;;;27.40;65.90;;;;;;4957322;29;20035;-76
2021/05/15 12:28:48;;;;;;;5.28;1.70;;;26.20;65.70;;;;;;4956511;29;20051;-76
2021/05/15 12:31:29;;;;;;;3.58;1.70;;;25.80;69.60;;;;;;4956805;29;20035;-77
2021/05/15 12:33:57;;;;;;;3.60;2.10;;;25.40;70.10;;;;;;4956901;29;20473;-78
2021/05/15 12:36:29;;;;;;;5.25;1.77;;;25.00;71.90;;;;;;4936611;29;20051;-76
2021/05/15 12:38:56;;;;;;;5.32;2.30;;;24.70;72.80;;;;;;4945524;29;20024;-75
2021/05/15 12:41:40;;;;;;;3.90;1.90;;;24.50;72.90;;;;;;4944129;29;20481;-75
2021/05/15 12:44:07;;;;;;;3.78;2.08;;;24.30;74.40;;;;;;4944814;29;20106;-76
2021/05/15 12:46:39;;;;;;;3.25;1.90;;;24.20;75.60;;;;;;4945815;29;20382;-76
2021/05/15 12:49:13;;;;;;;4.13;1.88;;;23.90;74.20;;;;;;4950879;29;20031;-75